createdAt,value
2022-08-30T00:01:59.858Z,6.65
2022-08-30T00:04:28.033Z,6.18
2022-08-30T00:06:56.170Z,6.85
2022-08-30T00:09:24.539Z,6.35
2022-08-30T00:11:52.857Z,7.38
2022-08-30T00:14:21.466Z,6.72
2022-08-30T00:16:50.995Z,5.07
2022-08-30T00:19:20.555Z,8.02
2022-08-30T00:21:48.743Z,8.52
2022-08-30T00:24:17.049Z,6.82
2022-08-30T00:26:45.438Z,6.50
2022-08-30T00:29:14.166Z,8.15
2022-08-30T00:31:42.474Z,7.57
2022-08-30T00:34:10.608Z,9.32
2022-08-30T00:36:40.105Z,10.88
2022-08-30T00:39:08.481Z,10.13
2022-08-30T00:41:37.185Z,8.70
2022-08-30T00:44:05.652Z,10.10
2022-08-30T00:46:34.009Z,9.23
2022-08-30T00:49:04.657Z,8.02
2022-08-30T00:51:33.504Z,9.60
2022-08-30T00:54:04.937Z,8.73
2022-08-30T00:56:34.226Z,9.45
2022-08-30T00:59:05.547Z,9.27
2022-08-30T01:01:36.210Z,10.20
2022-08-30T01:04:07.315Z,8.80
2022-08-30T01:06:35.737Z,8.27
2022-08-30T01:09:05.737Z,10.40
2022-08-30T01:11:35.635Z,16.85
2022-08-30T01:14:04.095Z,17.38
2022-08-30T01:16:33.053Z,23.38
2022-08-30T01:19:01.783Z,17.00
2022-08-30T01:21:34.387Z,15.27
2022-08-30T01:24:05.133Z,14.48
2022-08-30T01:26:34.165Z,12.20
2022-08-30T01:29:05.809Z,11.52
2022-08-30T01:31:37.070Z,10.38
2022-08-30T01:34:07.827Z,8.27
2022-08-30T01:36:37.722Z,7.72
2022-08-30T01:39:16.327Z,6.32
2022-08-30T01:41:45.353Z,7.53
2022-08-30T01:44:14.181Z,8.57
2022-08-30T01:46:45.822Z,8.77
2022-08-30T01:49:17.076Z,9.05
2022-08-30T01:51:47.237Z,10.75
2022-08-30T01:54:16.911Z,8.68
2022-08-30T01:56:45.282Z,11.75
2022-08-30T01:59:13.394Z,8.95
2022-08-30T02:01:43.175Z,10.63
2022-08-30T02:04:13.719Z,9.27
2022-08-30T02:06:42.203Z,7.53
2022-08-30T02:09:11.069Z,9.60
2022-08-30T02:11:40.866Z,10.20
2022-08-30T02:14:09.172Z,11.93
2022-08-30T02:16:37.574Z,11.25
2022-08-30T02:19:05.773Z,13.00
2022-08-30T02:21:33.873Z,9.23
2022-08-30T02:24:02.146Z,7.65
2022-08-30T02:26:30.319Z,8.95
2022-08-30T02:29:01.170Z,10.23
2022-08-30T02:31:30.339Z,12.75
2022-08-30T02:33:58.432Z,9.88
2022-08-30T02:36:27.065Z,10.10
2022-08-30T02:38:55.401Z,8.65
2022-08-30T02:41:24.468Z,12.10
2022-08-30T02:43:58.400Z,11.68
2022-08-30T02:46:28.380Z,12.73
2022-08-30T02:49:13.123Z,11.13
2022-08-30T02:51:50.081Z,11.98
2022-08-30T02:54:20.185Z,14.30
2022-08-30T02:56:48.690Z,13.88
2022-08-30T02:59:18.261Z,12.23
2022-08-30T03:01:48.018Z,11.60
2022-08-30T03:04:16.233Z,13.98
2022-08-30T03:06:44.765Z,15.80
2022-08-30T03:09:12.902Z,11.90
2022-08-30T03:11:42.731Z,13.05
2022-08-30T03:14:11.260Z,12.90
2022-08-30T03:16:39.620Z,8.65
2022-08-30T03:19:09.280Z,8.95
2022-08-30T03:21:38.215Z,9.38
2022-08-30T03:24:06.925Z,8.25
2022-08-30T03:26:35.931Z,7.95
2022-08-30T03:29:05.091Z,7.85
2022-08-30T03:31:37.807Z,7.60
2022-08-30T03:34:12.678Z,8.95
2022-08-30T03:36:41.362Z,9.75
2022-08-30T03:39:10.037Z,8.40
2022-08-30T03:41:42.309Z,8.85
2022-08-30T03:44:10.529Z,10.15
2022-08-30T03:46:39.218Z,14.60
2022-08-30T03:49:08.084Z,12.05
2022-08-30T03:51:37.790Z,13.02
2022-08-30T03:54:06.067Z,10.95
2022-08-30T03:56:34.606Z,10.93
2022-08-30T03:59:02.828Z,13.05
2022-08-30T04:01:31.022Z,10.40
2022-08-30T04:03:59.456Z,11.52
2022-08-30T04:06:28.210Z,12.85
2022-08-30T04:08:57.912Z,11.70
2022-08-30T04:11:26.430Z,9.15
2022-08-30T04:13:56.383Z,9.13
2022-08-30T04:16:25.623Z,11.85
2022-08-30T04:18:54.224Z,15.70
2022-08-30T04:21:22.530Z,11.75
2022-08-30T04:23:50.853Z,15.10
2022-08-30T04:26:20.627Z,15.18
2022-08-30T04:28:48.863Z,12.88
2022-08-30T04:31:19.020Z,12.02
2022-08-30T04:33:47.374Z,13.40
2022-08-30T04:36:16.134Z,11.13
2022-08-30T04:38:44.673Z,9.98
2022-08-30T04:41:16.510Z,11.77
2022-08-30T04:43:47.335Z,8.27
2022-08-30T04:46:16.076Z,9.93
2022-08-30T04:48:45.232Z,11.68
2022-08-30T04:51:16.273Z,11.88
2022-08-30T04:53:45.624Z,9.77
2022-08-30T04:56:16.845Z,13.52
2022-08-30T04:58:47.513Z,11.18
2022-08-30T05:01:18.795Z,10.77
2022-08-30T05:03:47.460Z,10.88
2022-08-30T05:06:15.844Z,10.07
2022-08-30T05:08:46.243Z,11.45
2022-08-30T05:13:44.127Z,9.63
2022-08-30T05:16:17.902Z,10.65
2022-08-30T05:18:47.363Z,9.98
2022-08-30T05:21:17.548Z,12.82
2022-08-30T05:23:46.314Z,8.73
2022-08-30T05:26:17.020Z,10.65
2022-08-30T05:28:45.483Z,11.88
2022-08-30T05:31:18.313Z,10.70
2022-08-30T05:33:47.191Z,11.27
2022-08-30T05:36:17.918Z,10.63
2022-08-30T05:38:46.632Z,8.80
2022-08-30T05:41:15.609Z,9.80
2022-08-30T05:43:45.156Z,10.48
2022-08-30T05:46:19.671Z,8.40
2022-08-30T05:48:48.914Z,8.07
2022-08-30T05:51:19.233Z,10.15
2022-08-30T05:53:48.597Z,7.45
2022-08-30T05:56:19.359Z,11.50
2022-08-30T05:58:47.732Z,9.27
2022-08-30T06:01:24.612Z,7.97
2022-08-30T06:03:53.303Z,8.27
2022-08-30T06:06:22.459Z,8.77
2022-08-30T06:08:51.606Z,11.32
2022-08-30T06:11:21.245Z,9.38
2022-08-30T06:13:50.515Z,13.73
2022-08-30T06:16:21.785Z,7.95
2022-08-30T06:18:52.502Z,9.27
2022-08-30T06:21:22.815Z,9.73
2022-08-30T06:23:51.535Z,10.13
2022-08-30T06:26:20.552Z,9.30
2022-08-30T06:28:49.283Z,9.57
2022-08-30T06:31:19.260Z,10.68
2022-08-30T06:33:48.360Z,7.97
2022-08-30T06:36:19.829Z,8.40
2022-08-30T06:38:52.145Z,11.50
2022-08-30T06:41:23.350Z,8.82
2022-08-30T06:43:52.140Z,8.65
2022-08-30T06:46:22.084Z,10.10
2022-08-30T06:48:50.542Z,9.77
2022-08-30T06:51:22.630Z,10.35
2022-08-30T06:53:51.901Z,9.13
2022-08-30T06:56:22.174Z,11.52
2022-08-30T06:58:51.678Z,7.47
2022-08-30T07:01:22.741Z,9.75
2022-08-30T07:03:51.667Z,9.82
2022-08-30T07:06:22.313Z,8.73
2022-08-30T07:08:56.450Z,8.18
2022-08-30T07:11:30.433Z,9.52
2022-08-30T07:13:59.096Z,11.77
2022-08-30T07:16:27.314Z,7.90
2022-08-30T07:18:55.427Z,9.85
2022-08-30T07:21:27.276Z,11.40
2022-08-30T07:23:57.508Z,11.05
2022-08-30T07:26:28.034Z,12.98
2022-08-30T07:28:57.512Z,10.90
2022-08-30T07:31:26.629Z,9.07
2022-08-30T07:33:55.093Z,10.23
2022-08-30T07:36:23.871Z,11.48
2022-08-30T07:38:54.739Z,10.38
2022-08-30T07:41:25.942Z,10.07
2022-08-30T07:43:54.606Z,7.45
2022-08-30T07:46:23.352Z,7.97
2022-08-30T07:48:54.406Z,8.80
2022-08-30T07:51:24.440Z,9.88
2022-08-30T07:56:22.947Z,9.40
2022-08-30T07:58:51.345Z,7.93
2022-08-30T08:01:20.622Z,6.70
2022-08-30T08:03:50.460Z,7.32
2022-08-30T08:06:20.854Z,6.65
2022-08-30T08:08:49.137Z,8.27
2022-08-30T08:11:20.276Z,6.35
2022-08-30T08:13:54.049Z,6.15
2022-08-30T08:16:24.904Z,4.22
2022-08-30T08:18:53.896Z,6.70
2022-08-30T08:21:22.474Z,5.30
2022-08-30T08:23:51.204Z,5.60
2022-08-30T08:26:21.599Z,5.32
2022-08-30T08:28:49.814Z,5.30
2022-08-30T08:31:19.128Z,6.15
2022-08-30T08:33:48.726Z,4.43
2022-08-30T08:36:18.669Z,5.30
2022-08-30T08:38:47.140Z,5.25
2022-08-30T08:41:28.243Z,5.18
2022-08-30T08:43:56.633Z,4.45
2022-08-30T08:46:30.010Z,4.75
2022-08-30T08:49:04.044Z,3.67
2022-08-30T08:51:51.508Z,4.25
2022-08-30T08:54:23.272Z,4.70
2022-08-30T08:56:52.867Z,3.13
2022-08-30T08:59:21.374Z,4.10
2022-08-30T09:01:51.029Z,3.65
2022-08-30T09:09:23.643Z,5.13
2022-08-30T09:11:53.329Z,3.33
2022-08-30T09:14:25.430Z,3.15
2022-08-30T09:17:02.986Z,4.38
2022-08-30T09:19:44.195Z,3.90
2022-08-30T09:22:26.722Z,3.78
2022-08-30T09:24:57.201Z,4.55
2022-08-30T09:27:30.673Z,5.97
2022-08-30T09:30:02.059Z,4.13
2022-08-30T09:32:37.308Z,2.35
2022-08-30T09:35:08.001Z,5.65
2022-08-30T09:37:39.913Z,3.85
2022-08-30T09:40:15.665Z,5.05
2022-08-30T09:43:00.736Z,2.50
2022-08-30T09:45:33.949Z,3.72
2022-08-30T09:48:02.282Z,5.15
2022-08-30T09:50:34.154Z,4.35
2022-08-30T09:53:10.097Z,3.38
2022-08-30T09:55:52.336Z,5.80
2022-08-30T09:58:32.385Z,3.33
2022-08-30T10:01:08.439Z,7.45
2022-08-30T10:03:42.730Z,3.88
2022-08-30T10:06:18.854Z,4.10
2022-08-30T10:08:55.941Z,4.20
2022-08-30T10:11:29.601Z,5.30
2022-08-30T10:14:10.431Z,4.25
2022-08-30T10:16:46.748Z,4.57
2022-08-30T10:19:29.658Z,4.15
2022-08-30T10:22:02.740Z,4.28
2022-08-30T10:24:34.266Z,3.83
2022-08-30T10:27:06.632Z,3.03
2022-08-30T10:29:42.519Z,3.78
2022-08-30T10:32:20.513Z,3.90
2022-08-30T10:34:53.309Z,2.75
2022-08-30T10:37:25.931Z,5.03
2022-08-30T10:39:56.213Z,3.67
2022-08-30T10:42:27.637Z,2.97
2022-08-30T10:45:01.225Z,3.88
2022-08-30T10:47:34.641Z,2.88
2022-08-30T10:50:09.173Z,2.33
2022-08-30T10:52:43.015Z,2.03
2022-08-30T10:55:16.625Z,2.95
2022-08-30T10:57:45.339Z,1.92
2022-08-30T11:00:17.726Z,2.00
2022-08-30T11:03:14.390Z,2.30
2022-08-30T11:06:01.616Z,2.25
2022-08-30T11:08:43.458Z,2.05
2022-08-30T11:11:21.112Z,2.08
2022-08-30T11:13:53.486Z,2.75
2022-08-30T11:16:37.432Z,2.95
2022-08-30T11:19:15.590Z,1.00
2022-08-30T11:21:47.739Z,1.20
2022-08-30T11:24:18.083Z,1.27
2022-08-30T11:26:57.682Z,1.38
2022-08-30T11:29:43.338Z,1.25
2022-08-30T11:32:25.065Z,1.67
2022-08-30T11:34:59.580Z,1.13
2022-08-30T11:37:40.352Z,2.67
2022-08-30T11:40:30.229Z,2.47
2022-08-30T11:45:46.677Z,1.85
2022-08-30T11:48:54.079Z,1.92
2022-08-30T11:51:58.145Z,2.20
2022-08-30T11:54:43.133Z,1.42
2022-08-30T11:57:19.706Z,1.85
2022-08-30T11:59:55.531Z,1.20
2022-08-30T12:02:45.550Z,2.15
2022-08-30T12:05:48.123Z,2.20
2022-08-30T12:08:59.607Z,2.20
2022-08-30T12:11:57.379Z,2.38
2022-08-30T12:14:52.138Z,1.98
2022-08-30T12:17:48.313Z,1.70
2022-08-30T12:20:24.814Z,2.80
2022-08-30T12:22:53.963Z,2.20
2022-08-30T12:25:29.685Z,2.93
2022-08-30T12:28:18.001Z,2.03
2022-08-30T12:30:46.945Z,1.63
2022-08-30T12:33:28.998Z,2.47
2022-08-30T12:35:59.700Z,3.42
2022-08-30T12:38:30.795Z,3.92
2022-08-30T12:41:02.876Z,2.95
2022-08-30T12:43:41.449Z,5.22
2022-08-30T12:46:15.310Z,3.45
2022-08-30T12:48:44.722Z,2.15
2022-08-30T12:51:29.428Z,2.22
2022-08-30T12:54:08.765Z,2.13
2022-08-30T12:56:56.572Z,2.28
2022-08-30T12:59:52.929Z,3.03
2022-08-30T13:02:25.964Z,1.95
2022-08-30T13:04:56.362Z,2.05
2022-08-30T13:07:30.837Z,1.73
2022-08-30T13:10:08.955Z,2.50
2022-08-30T13:12:40.466Z,1.13
2022-08-30T13:15:30.065Z,1.33
2022-08-30T13:18:13.512Z,1.10
2022-08-30T13:20:46.951Z,2.30
2022-08-30T13:23:23.872Z,1.35
2022-08-30T13:25:51.956Z,2.97
2022-08-30T13:28:21.351Z,1.17
2022-08-30T13:30:50.919Z,1.30
2022-08-30T13:33:19.169Z,1.40
2022-08-30T13:35:47.745Z,1.60
2022-08-30T13:38:16.265Z,2.45
2022-08-30T13:40:44.752Z,1.15
2022-08-30T13:43:13.059Z,2.05
2022-08-30T13:45:41.976Z,3.15
2022-08-30T13:48:12.167Z,0.93
2022-08-30T13:50:40.520Z,1.60
2022-08-30T13:53:09.465Z,2.45
2022-08-30T13:55:38.859Z,1.25
2022-08-30T13:58:07.179Z,1.63
2022-08-30T14:00:37.700Z,1.00
2022-08-30T14:03:06.507Z,2.47
2022-08-30T14:06:21.819Z,1.80
2022-08-30T14:08:47.888Z,3.05
2022-08-30T14:11:20.926Z,1.80
2022-08-30T14:16:41.336Z,2.58
2022-08-30T14:19:09.739Z,1.83
2022-08-30T14:21:39.510Z,1.88
2022-08-30T14:24:07.892Z,1.50
2022-08-30T14:26:38.906Z,1.80
2022-08-30T14:29:10.246Z,2.35
2022-08-30T14:31:39.254Z,3.45
2022-08-30T14:34:09.129Z,4.03
2022-08-30T14:36:42.973Z,2.60
2022-08-30T14:39:14.590Z,4.47
2022-08-30T14:41:45.052Z,3.90
2022-08-30T14:44:13.688Z,3.67
2022-08-30T14:46:42.672Z,3.03
2022-08-30T14:49:11.650Z,3.67
2022-08-30T14:51:41.630Z,2.30
2022-08-30T14:54:10.190Z,4.97
2022-08-30T14:56:39.586Z,3.13
2022-08-30T14:59:08.853Z,2.65
2022-08-30T15:01:39.416Z,1.55
2022-08-30T15:04:09.653Z,2.30
2022-08-30T15:06:38.929Z,2.30
2022-08-30T15:09:11.588Z,3.20
2022-08-30T15:11:40.205Z,1.70
2022-08-30T15:14:11.801Z,3.15
2022-08-30T15:16:44.701Z,1.75
2022-08-30T15:19:13.142Z,5.10
2022-08-30T15:21:43.786Z,2.38
2022-08-30T15:24:16.401Z,2.58
2022-08-30T15:26:44.684Z,3.15
2022-08-30T15:29:14.072Z,2.17
2022-08-30T15:31:42.618Z,2.80
2022-08-30T15:34:11.999Z,2.33
2022-08-30T15:36:40.748Z,3.03
2022-08-30T15:39:10.696Z,2.25
2022-08-30T15:41:44.382Z,2.95
2022-08-30T15:44:13.622Z,2.83
2022-08-30T15:46:43.351Z,2.40
2022-08-30T15:49:14.749Z,1.80
2022-08-30T15:51:46.109Z,2.65
2022-08-30T15:54:16.466Z,2.00
2022-08-30T15:56:47.038Z,2.20
2022-08-30T15:59:17.620Z,1.80
2022-08-30T16:01:47.647Z,1.63
2022-08-30T16:04:18.536Z,1.30
2022-08-30T16:06:47.593Z,2.85
2022-08-30T16:09:15.887Z,2.47
2022-08-30T16:11:44.227Z,3.03
2022-08-30T16:14:13.707Z,3.05
2022-08-30T16:16:42.944Z,2.33
2022-08-30T16:19:11.377Z,3.78
2022-08-30T16:21:41.735Z,4.25
2022-08-30T16:24:13.665Z,2.55
2022-08-30T16:26:42.392Z,4.03
2022-08-30T16:29:13.635Z,2.75
2022-08-30T16:31:43.636Z,1.92
2022-08-30T16:34:12.585Z,4.70
2022-08-30T16:36:40.883Z,2.03
2022-08-30T16:39:10.218Z,2.40
2022-08-30T16:41:38.986Z,2.80
2022-08-30T16:44:07.377Z,3.88
2022-08-30T16:46:38.539Z,3.13
2022-08-30T16:49:08.804Z,3.57
2022-08-30T16:51:37.486Z,2.30
2022-08-30T16:54:08.326Z,3.47
2022-08-30T16:56:38.636Z,3.35
2022-08-30T16:59:11.096Z,3.35
2022-08-30T17:01:42.642Z,3.33
2022-08-30T17:04:13.853Z,2.30
2022-08-30T17:06:47.110Z,2.45
2022-08-30T17:09:15.580Z,2.30
2022-08-30T17:11:44.110Z,2.55
2022-08-30T17:14:13.719Z,5.75
2022-08-30T17:16:43.963Z,3.38
2022-08-30T17:19:13.821Z,2.42
2022-08-30T17:21:43.161Z,2.60
2022-08-30T17:24:11.443Z,3.65
2022-08-30T17:26:40.122Z,4.60
2022-08-30T17:29:08.744Z,4.22
2022-08-30T17:31:37.686Z,4.05
2022-08-30T17:34:07.652Z,4.28
2022-08-30T17:36:37.110Z,3.30
2022-08-30T17:39:10.827Z,3.95
2022-08-30T17:41:49.133Z,4.72
2022-08-30T17:44:19.553Z,6.13
2022-08-30T17:46:48.209Z,6.53
2022-08-30T17:49:17.958Z,3.78
2022-08-30T17:51:47.752Z,4.97
2022-08-30T17:54:16.472Z,4.30
2022-08-30T17:56:46.014Z,4.45
2022-08-30T17:59:14.920Z,5.97
2022-08-30T18:01:44.458Z,4.65
2022-08-30T18:04:14.470Z,4.20
2022-08-30T18:06:49.617Z,6.15
2022-08-30T18:09:17.904Z,6.05
2022-08-30T18:11:46.061Z,5.25
2022-08-30T18:14:17.554Z,6.95
2022-08-30T18:16:50.317Z,5.00
2022-08-30T18:19:24.507Z,6.93
2022-08-30T18:21:54.195Z,5.65
2022-08-30T18:24:22.873Z,4.55
2022-08-30T18:26:51.586Z,5.57
2022-08-30T18:29:25.978Z,4.88
2022-08-30T18:31:57.356Z,6.70
2022-08-30T18:34:25.752Z,5.53
2022-08-30T18:36:55.527Z,5.88
2022-08-30T18:39:24.132Z,5.80
2022-08-30T18:41:52.962Z,5.75
2022-08-30T18:44:33.082Z,5.40
2022-08-30T18:47:03.772Z,6.47
2022-08-30T18:49:33.173Z,4.18
2022-08-30T18:52:03.692Z,6.25
2022-08-30T18:54:32.406Z,7.47
2022-08-30T18:57:00.583Z,4.72
2022-08-30T18:59:31.393Z,5.40
2022-08-30T19:02:04.239Z,5.13
2022-08-30T19:04:35.390Z,4.93
2022-08-30T19:07:07.726Z,5.05
2022-08-30T19:09:36.249Z,5.53
2022-08-30T19:12:09.456Z,6.93
2022-08-30T19:14:40.244Z,4.47
2022-08-30T19:17:08.575Z,5.80
2022-08-30T19:19:46.289Z,7.50
2022-08-30T19:22:20.125Z,6.07
2022-08-30T19:24:49.974Z,6.43
2022-08-30T19:27:21.553Z,8.95
2022-08-30T19:30:07.854Z,4.53
2022-08-30T19:32:37.111Z,4.95
2022-08-30T19:35:05.894Z,4.38
2022-08-30T19:37:35.795Z,7.32
2022-08-30T19:40:06.171Z,5.15
2022-08-30T19:42:38.463Z,6.07
2022-08-30T19:45:13.737Z,6.20
2022-08-30T19:47:41.823Z,4.82
2022-08-30T19:50:10.859Z,4.22
2022-08-30T19:52:40.654Z,5.32
2022-08-30T19:55:10.594Z,5.57
2022-08-30T19:57:39.147Z,5.57
2022-08-30T20:00:09.178Z,5.45
2022-08-30T20:02:40.528Z,5.82
2022-08-30T20:05:10.134Z,5.10
2022-08-30T20:07:42.789Z,7.50
2022-08-30T20:10:13.818Z,5.60
2022-08-30T20:12:45.048Z,6.57
2022-08-30T20:15:15.526Z,8.70
2022-08-30T20:18:02.701Z,8.98
2022-08-30T20:20:33.791Z,11.85
2022-08-30T20:23:06.862Z,11.40
2022-08-30T20:25:36.172Z,11.43
2022-08-30T20:28:05.509Z,12.75
2022-08-30T20:30:34.536Z,10.15
2022-08-30T20:33:07.065Z,8.85
2022-08-30T20:35:38.437Z,7.65
2022-08-30T20:38:08.263Z,11.23
2022-08-30T20:40:37.270Z,12.43
2022-08-30T20:43:06.241Z,16.85
2022-08-30T20:45:35.273Z,13.55
2022-08-30T20:48:03.910Z,29.35
2022-08-30T20:50:32.036Z,20.40
2022-08-30T20:53:00.463Z,14.77
2022-08-30T20:55:29.941Z,14.52
2022-08-30T20:57:58.098Z,19.13
2022-08-30T21:00:26.662Z,17.05
2022-08-30T21:02:55.624Z,14.93
2022-08-30T21:05:23.999Z,10.43
2022-08-30T21:07:53.061Z,14.43
2022-08-30T21:10:23.462Z,11.70
2022-08-30T21:12:54.154Z,11.45
2022-08-30T21:15:38.446Z,15.93
2022-08-30T21:18:06.950Z,17.30
2022-08-30T21:20:36.154Z,16.80
2022-08-30T21:23:04.569Z,14.32
2022-08-30T21:25:34.309Z,14.00
2022-08-30T21:28:04.294Z,9.45
2022-08-30T21:30:32.376Z,14.65
2022-08-30T21:33:00.830Z,12.48
2022-08-30T21:35:47.213Z,11.13
2022-08-30T21:38:15.729Z,13.88
2022-08-30T21:40:44.271Z,15.27
2022-08-30T21:43:13.958Z,11.90
2022-08-30T21:45:43.208Z,10.75
2022-08-30T21:48:13.364Z,11.05
2022-08-30T21:50:42.374Z,10.85
2022-08-30T21:53:10.665Z,9.02
2022-08-30T21:55:39.132Z,10.82
2022-08-30T21:58:07.833Z,14.13
2022-08-30T22:00:37.208Z,17.17
2022-08-30T22:03:05.765Z,12.93
2022-08-30T22:05:34.054Z,11.38
2022-08-30T22:08:03.493Z,8.65
2022-08-30T22:10:33.357Z,7.90
2022-08-30T22:13:02.148Z,9.82
2022-08-30T22:15:32.425Z,7.70
2022-08-30T22:18:02.799Z,9.27
2022-08-30T22:20:31.325Z,9.35
2022-08-30T22:22:59.778Z,9.93
2022-08-30T22:25:28.424Z,9.32
2022-08-30T22:27:56.929Z,10.98
2022-08-30T22:30:25.519Z,10.52
2022-08-30T22:32:55.861Z,9.70
2022-08-30T22:35:25.768Z,9.30
2022-08-30T22:37:54.326Z,9.52
2022-08-30T22:40:23.369Z,15.23
2022-08-30T22:42:51.907Z,13.35
2022-08-30T22:45:20.537Z,8.02
2022-08-30T22:47:49.195Z,9.38
2022-08-30T22:50:17.779Z,12.43
2022-08-30T22:52:48.067Z,9.57
2022-08-30T22:55:16.814Z,12.38
2022-08-30T22:57:45.368Z,12.10
2022-08-30T23:00:17.266Z,12.18
2022-08-30T23:02:50.419Z,12.93
2022-08-30T23:05:20.724Z,11.63
2022-08-30T23:07:50.940Z,10.80
2022-08-30T23:10:20.009Z,9.68
2022-08-30T23:12:48.172Z,12.05
2022-08-30T23:15:16.589Z,11.93
2022-08-30T23:17:45.066Z,13.18
2022-08-30T23:20:13.838Z,9.70
2022-08-30T23:22:41.970Z,11.77
2022-08-30T23:25:32.008Z,13.25
2022-08-30T23:28:20.827Z,12.10
2022-08-30T23:31:06.913Z,10.05
2022-08-30T23:33:52.980Z,12.77
2022-08-30T23:36:38.789Z,11.52
2022-08-30T23:39:24.484Z,11.23
2022-08-30T23:42:11.699Z,12.15
2022-08-30T23:44:57.590Z,8.68
2022-08-30T23:47:43.360Z,11.30
2022-08-30T23:50:29.194Z,16.27
2022-08-30T23:53:14.921Z,11.18
2022-08-30T23:56:00.748Z,8.68
2022-08-30T23:58:47.968Z,11.63
